Time;durP1;ratioP1;P1;durP2;ratioP2;P2;SDS_P1;SDS_P2;PMS_P1;PMS_P2;Temp;Humidity;BMP_temperature;BMP_pressure;BME280_temperature;BME280_humidity;BME280_pressure;Samples;Min_cycle;Max_cycle;Signal;HPM_P1;HPM_P2
2023/12/01 00:01:00;;;;;;;;;43.25;36.00;;;;;10.49;100.00;99482.13;2102307;27;46380;-62
2023/12/01 00:02:00;;;;;;;;;48.00;40.25;;;;;10.50;100.00;99488.28;2096966;27;46304;-61
2023/12/01 00:03:00;;;;;;;;;45.25;37.50;;;;;10.49;100.00;99487.44;2103803;27;46183;-61
2023/12/01 00:04:01;;;;;;;;;46.75;37.75;;;;;10.49;100.00;99487.44;2104130;27;47053;-60
2023/12/01 00:05:01;;;;;;;;;39.00;35.25;;;;;10.50;100.00;99490.94;2103449;28;45875;-60
2023/12/01 00:06:02;;;;;;;;;42.50;35.50;;;;;10.50;100.00;99489.16;2104097;27;45647;-61
2023/12/01 00:07:03;;;;;;;;;44.25;37.25;;;;;10.50;100.00;99483.84;2104490;27;46310;-58
2023/12/01 00:08:04;;;;;;;;;49.20;38.60;;;;;10.51;100.00;99490.00;2104069;27;46562;-61
2023/12/01 00:09:04;;;;;;;;;46.50;35.25;;;;;10.51;100.00;99490.00;2104071;27;46385;-60
2023/12/01 00:10:10;;;;;;;;;42.50;37.50;;;;;10.52;100.00;99489.09;2104327;27;46253;-60
2023/12/01 00:11:10;;;;;;;;;40.80;33.60;;;;;10.52;100.00;99494.41;2104459;27;46699;-62
2023/12/01 00:12:10;;;;;;;;;38.25;34.25;;;;;10.51;100.00;99482.06;2103956;28;46676;-61
2023/12/01 00:13:11;;;;;;;;;44.50;38.25;;;;;10.50;100.00;99483.00;2105047;28;46858;-62
2023/12/01 00:14:11;;;;;;;;;39.50;35.25;;;;;10.49;100.00;99486.56;2105512;28;46631;-62
2023/12/01 00:15:11;;;;;;;;;39.25;32.75;;;;;10.49;100.00;99491.88;2105448;28;46517;-61
2023/12/01 00:16:11;;;;;;;;;46.00;37.00;;;;;10.49;100.00;99497.19;2105546;28;46573;-61
2023/12/01 00:17:12;;;;;;;;;42.75;38.00;;;;;10.48;100.00;99488.34;2106006;27;46141;-59
2023/12/01 00:18:12;;;;;;;;;44.75;37.25;;;;;10.49;100.00;99490.09;2095830;28;46441;-60
2023/12/01 00:19:12;;;;;;;;;40.25;34.00;;;;;10.50;100.00;99485.63;2086918;28;46822;-62
2023/12/01 00:20:13;;;;;;;;;40.25;34.50;;;;;10.50;100.00;99493.59;2104725;28;46805;-62
2023/12/01 00:21:13;;;;;;;;;40.25;34.25;;;;;10.50;100.00;99489.16;2105845;28;46231;-61
2023/12/01 00:22:14;;;;;;;;;47.25;38.00;;;;;10.51;100.00;99495.31;2105053;28;46430;-62
2023/12/01 00:23:14;;;;;;;;;44.25;36.50;;;;;10.50;100.00;99485.63;2099678;28;46200;-62
2023/12/01 00:24:14;;;;;;;;;38.75;35.00;;;;;10.50;100.00;99490.94;2105236;28;46800;-62
2023/12/01 00:25:15;;;;;;;;;35.00;31.25;;;;;10.49;100.00;99489.22;2108886;27;46483;-62
2023/12/01 00:26:15;;;;;;;;;40.75;35.50;;;;;10.49;100.00;99492.75;2100097;28;46334;-60
2023/12/01 00:27:15;;;;;;;;;36.50;28.50;;;;;10.49;100.00;99500.69;2104877;28;46819;-62
2023/12/01 00:28:16;;;;;;;;;43.25;36.00;;;;;10.49;100.00;99490.09;2105015;28;46514;-62
2023/12/01 00:29:16;;;;;;;;;40.00;33.00;;;;;10.50;100.00;99488.28;2105584;28;46781;-63
2023/12/01 00:30:17;;;;;;;;;42.25;36.25;;;;;10.49;100.00;99489.22;2105623;28;46658;-63
2023/12/01 00:31:17;;;;;;;;;46.00;39.75;;;;;10.49;100.00;99489.22;2105505;27;46563;-60
2023/12/01 00:32:17;;;;;;;;;41.75;35.75;;;;;10.50;100.00;99489.16;2105761;27;46582;-63
2023/12/01 00:33:18;;;;;;;;;40.00;35.00;;;;;10.49;100.00;99481.25;2105816;28;45279;-62
2023/12/01 00:34:18;;;;;;;;;42.50;36.25;;;;;10.50;100.00;99486.50;2105899;27;46629;-60
2023/12/01 00:35:18;;;;;;;;;38.75;34.00;;;;;10.49;100.00;99494.53;2105865;28;46850;-62
2023/12/01 00:36:19;;;;;;;;;46.25;37.25;;;;;10.48;100.00;99498.97;2105297;28;46602;-62
2023/12/01 00:37:19;;;;;;;;;48.25;40.50;;;;;10.48;100.00;99492.81;2102947;27;46268;-63
2023/12/01 00:38:19;;;;;;;;;23.25;22.50;;;;;10.47;100.00;99493.72;2106517;27;45636;-59
2023/12/01 00:39:20;;;;;;;;;46.50;38.50;;;;;10.47;100.00;99499.03;2104595;28;46603;-63
2023/12/01 00:40:20;;;;;;;;;46.00;35.00;;;;;10.47;100.00;99494.59;2105078;28;46869;-63
2023/12/01 00:41:20;;;;;;;;;37.00;34.00;;;;;10.47;100.00;99491.06;2105570;27;46657;-62
2023/12/01 00:42:21;;;;;;;;;41.00;36.75;;;;;10.46;100.00;99487.56;2105558;27;46555;-63
2023/12/01 00:43:21;;;;;;;;;43.75;35.75;;;;;10.46;100.00;99487.56;2105544;27;46635;-63
2023/12/01 00:44:21;;;;;;;;;38.75;35.50;;;;;10.45;100.00;99495.59;2105389;28;46862;-61
2023/12/01 00:45:22;;;;;;;;;37.25;33.00;;;;;10.42;100.00;99485.97;2105545;27;46505;-62
2023/12/01 00:46:22;;;;;;;;;33.00;31.25;;;;;10.41;100.00;99492.16;2105549;27;46675;-61
2023/12/01 00:47:22;;;;;;;;;47.00;37.50;;;;;10.39;100.00;99488.72;2109158;27;46517;-60
2023/12/01 00:48:23;;;;;;;;;36.75;33.50;;;;;10.38;100.00;99496.75;2107727;27;46323;-58
2023/12/01 00:49:23;;;;;;;;;43.50;36.25;;;;;10.37;100.00;99490.56;2105267;27;46163;-62
2023/12/01 00:50:23;;;;;;;;;39.25;36.00;;;;;10.40;100.00;99494.88;2105326;28;46819;-61
2023/12/01 00:51:23;;;;;;;;;40.75;33.75;;;;;10.37;100.00;99487.94;2105278;28;46937;-62
2023/12/01 00:52:24;;;;;;;;;41.75;33.75;;;;;10.37;100.00;99490.56;2104266;28;46655;-58
2023/12/01 00:53:25;;;;;;;;;42.50;35.75;;;;;10.36;100.00;99493.28;2104603;28;46317;-61
2023/12/01 00:54:25;;;;;;;;;37.50;34.25;;;;;10.37;100.00;99500.31;2103322;28;46251;-61
2023/12/01 00:55:25;;;;;;;;;40.50;34.25;;;;;10.36;100.00;99499.47;2103376;27;46687;-60
2023/12/01 00:56:25;;;;;;;;;45.25;38.00;;;;;10.36;100.00;99493.28;2105225;27;46191;-63
2023/12/01 00:57:26;;;;;;;;;35.50;33.50;;;;;10.35;100.00;99496.88;2105614;28;46516;-61
2023/12/01 00:58:26;;;;;;;;;44.25;36.75;;;;;10.35;100.00;99495.09;2105543;27;46702;-61
2023/12/01 00:59:26;;;;;;;;;35.25;32.25;;;;;10.35;100.00;99496.88;2104700;27;45455;-63
2023/12/01 01:00:27;;;;;;;;;36.75;33.50;;;;;10.35;100.00;99497.75;2104827;28;46618;-61
2023/12/01 01:01:27;;;;;;;;;35.00;33.00;;;;;10.36;100.00;99504.75;2105408;27;46573;-60
2023/12/01 01:02:28;;;;;;;;;41.25;35.75;;;;;10.36;100.00;99506.56;2105431;27;45216;-61
2023/12/01 01:03:28;;;;;;;;;37.75;34.25;;;;;10.36;100.00;99506.56;2105370;28;46765;-61
2023/12/01 01:04:28;;;;;;;;;42.00;36.00;;;;;10.36;100.00;99504.75;2104724;28;46276;-59
2023/12/01 01:05:29;;;;;;;;;37.75;34.00;;;;;10.35;100.00;99497.75;2104983;28;45264;-62
2023/12/01 01:06:29;;;;;;;;;39.50;35.50;;;;;10.37;100.00;99497.69;2104902;27;45474;-61
2023/12/01 01:07:29;;;;;;;;;44.00;36.00;;;;;10.35;100.00;99495.09;2104841;28;46258;-62
2023/12/01 01:08:30;;;;;;;;;38.25;34.75;;;;;10.36;100.00;99498.59;2104806;28;46537;-61
2023/12/01 01:09:30;;;;;;;;;38.00;34.75;;;;;10.37;100.00;99497.69;2100156;27;46389;-60
2023/12/01 01:10:31;;;;;;;;;42.25;35.75;;;;;10.36;100.00;99503.91;2105296;27;46345;-61
2023/12/01 01:11:31;;;;;;;;;43.75;37.25;;;;;10.35;100.00;99496.88;2104410;27;46613;-63
2023/12/01 01:12:31;;;;;;;;;40.25;34.25;;;;;10.33;100.00;99494.28;2104594;28;46329;-62
2023/12/01 01:13:32;;;;;;;;;40.75;35.25;;;;;10.35;100.00;99491.56;2099724;27;45136;-61
2023/12/01 01:14:32;;;;;;;;;35.25;32.75;;;;;10.32;100.00;99490.78;2104883;27;46374;-60
2023/12/01 01:15:33;;;;;;;;;38.00;32.25;;;;;10.32;100.00;99492.56;2105205;27;46871;-61
2023/12/01 01:16:33;;;;;;;;;40.25;34.50;;;;;10.30;100.00;99500.59;2105297;27;46572;-63
2023/12/01 01:17:33;;;;;;;;;43.00;36.25;;;;;10.29;100.00;99504.16;2105032;28;46652;-61
2023/12/01 01:18:34;;;;;;;;;28.25;27.50;;;;;10.29;100.00;99506.81;2104961;27;46622;-60
2023/12/01 01:19:34;;;;;;;;;38.25;35.00;;;;;10.31;100.00;99493.50;2103671;27;46285;-59
2023/12/01 01:20:34;;;;;;;;;45.50;37.50;;;;;10.31;100.00;99490.84;2100193;28;46318;-61
2023/12/01 01:21:35;;;;;;;;;42.75;35.50;;;;;10.31;100.00;99498.78;2102808;28;46783;-60
2023/12/01 01:22:35;;;;;;;;;35.75;30.50;;;;;10.31;100.00;99498.78;2105087;28;46471;-60
2023/12/01 01:23:35;;;;;;;;;37.00;35.00;;;;;10.31;100.00;99494.34;2079596;28;46426;-59
2023/12/01 01:24:36;;;;;;;;;46.00;34.50;;;;;10.31;100.00;99493.50;2082211;28;46314;-61
2023/12/01 01:25:36;;;;;;;;;39.25;34.25;;;;;10.31;100.00;99498.78;2102114;27;45731;-58
2023/12/01 01:26:36;;;;;;;;;39.50;33.50;;;;;10.32;100.00;99495.22;2105576;27;46210;-64
2023/12/01 01:27:37;;;;;;;;;41.00;35.00;;;;;10.31;100.00;99496.16;2105038;27;46937;-62
2023/12/01 01:28:37;;;;;;;;;42.00;34.50;;;;;10.31;100.00;99496.16;2105635;27;45355;-62
2023/12/01 01:29:37;;;;;;;;;35.00;30.00;;;;;10.29;100.00;99493.56;2095323;28;46534;-62
2023/12/01 01:30:37;;;;;;;;;49.50;38.25;;;;;10.33;100.00;99496.94;2094446;28;46650;-61
2023/12/01 01:31:38;;;;;;;;;39.75;36.50;;;;;10.31;100.00;99496.16;2112842;27;45537;-58
2023/12/01 01:32:38;;;;;;;;;44.00;36.00;;;;;10.32;100.00;99511.13;2103971;27;46527;-60
2023/12/01 01:33:38;;;;;;;;;47.00;37.50;;;;;10.31;100.00;99504.97;2104768;27;46631;-60
2023/12/01 01:34:39;;;;;;;;;44.50;34.25;;;;;10.31;100.00;99512.91;2105110;27;46476;-61
2023/12/01 01:35:39;;;;;;;;;40.50;32.75;;;;;10.31;100.00;99506.75;2104754;27;46121;-63
2023/12/01 01:36:40;;;;;;;;;44.00;37.00;;;;;10.30;100.00;99499.72;2105165;27;46298;-61
2023/12/01 01:37:40;;;;;;;;;41.50;36.00;;;;;10.30;100.00;99516.50;2105204;27;46178;-60
2023/12/01 01:38:40;;;;;;;;;48.50;41.50;;;;;10.29;100.00;99521.84;2095566;28;46248;-61
2023/12/01 01:39:41;;;;;;;;;49.00;37.50;;;;;10.29;100.00;99522.72;2095473;28;46270;-60
2023/12/01 01:40:42;;;;;;;;;44.50;35.50;;;;;10.29;100.00;99519.19;2104407;28;46602;-62
2023/12/01 01:41:42;;;;;;;;;35.60;32.80;;;;;10.29;100.00;99514.78;2099598;27;46577;-61
2023/12/01 01:42:43;;;;;;;;;40.00;36.50;;;;;10.29;100.00;99521.84;2099341;28;46397;-62
2023/12/01 01:43:43;;;;;;;;;43.00;36.75;;;;;10.27;100.00;99516.59;2078439;28;46840;-62
2023/12/01 01:44:43;;;;;;;;;42.75;37.50;;;;;10.25;100.00;99515.78;2078601;28;46258;-62
2023/12/01 01:45:44;;;;;;;;;39.25;35.50;;;;;10.25;100.00;99518.44;2105044;28;46495;-60
2023/12/01 01:46:45;;;;;;;;;38.25;32.75;;;;;10.23;100.00;99512.34;2105313;28;46285;-61
2023/12/01 01:47:46;;;;;;;;;37.20;34.40;;;;;10.22;100.00;99515.94;2104569;27;46844;-62
2023/12/01 01:48:46;;;;;;;;;40.50;36.00;;;;;10.22;100.00;99515.94;2105144;27;46196;-58
2023/12/01 01:49:47;;;;;;;;;42.50;36.25;;;;;10.21;100.00;99519.50;2104920;27;46257;-62
2023/12/01 01:50:47;;;;;;;;;41.00;35.25;;;;;10.22;100.00;99517.72;2104737;27;46469;-61
2023/12/01 01:51:49;;;;;;;;;45.00;36.75;;;;;10.21;100.00;99515.94;2104952;27;46387;-62
2023/12/01 01:52:51;;;;;;;;;39.00;35.00;;;;;10.19;100.00;99516.03;2104837;27;46484;-62
2023/12/01 01:53:51;;;;;;;;;39.20;36.00;;;;;10.20;100.00;99511.56;2104680;28;46287;-61
2023/12/01 01:54:51;;;;;;;;;41.75;36.25;;;;;10.18;100.00;99513.44;2104326;28;46566;-62
2023/12/01 01:55:52;;;;;;;;;38.75;35.00;;;;;10.18;100.00;99510.78;2101735;28;46413;-60
2023/12/01 01:56:53;;;;;;;;;41.25;36.00;;;;;10.17;100.00;99509.91;2105287;27;46245;-60
2023/12/01 01:57:54;;;;;;;;;40.40;34.60;;;;;10.16;100.00;99512.59;2105003;28;46358;-59
2023/12/01 01:58:54;;;;;;;;;42.00;36.00;;;;;10.15;100.00;99514.38;2105065;27;46343;-62
2023/12/01 01:59:54;;;;;;;;;46.25;35.00;;;;;10.15;100.00;99503.78;2105318;28;45956;-62
2023/12/01 02:00:55;;;;;;;;;43.25;34.75;;;;;10.15;100.00;99509.09;2104633;28;46808;-62
2023/12/01 02:01:55;;;;;;;;;37.25;33.00;;;;;10.14;100.00;99512.66;2105453;27;45550;-62
2023/12/01 02:02:55;;;;;;;;;41.75;36.00;;;;;10.13;100.00;99518.03;2104755;28;46659;-60
2023/12/01 02:03:56;;;;;;;;;38.25;33.75;;;;;10.13;100.00;99515.38;2104934;27;46597;-61
2023/12/01 02:04:56;;;;;;;;;35.00;32.00;;;;;10.12;100.00;99519.81;2105365;27;45552;-61
2023/12/01 02:05:57;;;;;;;;;43.75;36.00;;;;;10.11;100.00;99515.44;2103825;28;46456;-61
2023/12/01 02:06:58;;;;;;;;;42.00;34.75;;;;;10.10;100.00;99519.03;2101530;27;46679;-61
2023/12/01 02:08:22;;;;;;;;;44.60;35.40;;;;;10.11;100.00;99526.03;2104479;28;46431;-62
2023/12/01 02:09:22;;;;;;;;;30.60;28.60;;;;;10.12;100.00;99525.13;2102563;28;46827;-60
2023/12/01 02:10:23;;;;;;;;;42.50;35.25;;;;;10.13;100.00;99526.84;2105052;27;46342;-59
2023/12/01 02:11:25;;;;;;;;;39.00;34.75;;;;;10.12;100.00;99518.97;2103992;27;46777;-60
2023/12/01 02:12:25;;;;;;;;;37.00;33.00;;;;;10.11;100.00;99528.69;2103726;27;46681;-58
2023/12/01 02:13:26;;;;;;;;;41.75;34.00;;;;;10.11;100.00;99534.00;2104395;28;46498;-57
2023/12/01 02:14:26;;;;;;;;;37.60;32.00;;;;;10.10;100.00;99526.97;2104701;28;45785;-57
2023/12/01 02:15:32;;;;;;;;;35.75;34.25;;;;;10.09;100.00;99530.53;2087247;28;46681;-61
2023/12/01 02:16:32;;;;;;;;;37.20;33.80;;;;;10.10;100.00;99536.72;2088863;28;46485;-61
2023/12/01 02:17:32;;;;;;;;;43.00;35.75;;;;;10.09;100.00;99529.69;2107611;27;45499;-62
2023/12/01 02:18:35;;;;;;;;;37.00;33.00;;;;;10.06;100.00;99535.97;2104435;27;46497;-59
2023/12/01 02:19:36;;;;;;;;;41.60;34.00;;;;;10.05;100.00;99536.03;2104507;27;46418;-62
2023/12/01 02:20:36;;;;;;;;;34.25;29.25;;;;;10.02;100.00;99529.91;2105111;27;46339;-61
2023/12/01 02:21:36;;;;;;;;;39.75;35.00;;;;;10.02;100.00;99532.56;2105033;28;46789;-61
2023/12/01 02:22:36;;;;;;;;;40.50;35.25;;;;;10.02;100.00;99535.19;2105210;27;46131;-63
2023/12/01 02:23:37;;;;;;;;;33.25;32.25;;;;;10.02;100.00;99537.84;2101874;28;46952;-61
2023/12/01 02:24:37;;;;;;;;;38.25;34.75;;;;;10.03;100.00;99534.28;2098194;28;46295;-62
2023/12/01 02:25:37;;;;;;;;;34.50;30.00;;;;;10.04;100.00;99532.53;2102585;28;46719;-59
2023/12/01 02:26:38;;;;;;;;;43.75;34.50;;;;;10.03;100.00;99533.41;2105187;27;45669;-61
2023/12/01 02:27:38;;;;;;;;;37.50;32.25;;;;;10.05;100.00;99533.38;2103245;27;46331;-61
2023/12/01 02:28:39;;;;;;;;;36.50;35.00;;;;;10.06;100.00;99525.38;2104614;27;46260;-62
2023/12/01 02:29:39;;;;;;;;;37.75;35.00;;;;;10.07;100.00;99527.09;2104238;27;46264;-62
2023/12/01 02:30:42;;;;;;;;;46.25;37.00;;;;;10.06;100.00;99525.38;2104139;28;46638;-61
2023/12/01 02:31:42;;;;;;;;;50.20;38.40;;;;;10.05;100.00;99533.38;2104197;28;46248;-62
2023/12/01 02:32:43;;;;;;;;;38.50;35.00;;;;;10.05;100.00;99528.09;2105069;28;46824;-62
2023/12/01 02:33:43;;;;;;;;;39.20;34.20;;;;;10.03;100.00;99533.41;2104118;28;46355;-61
2023/12/01 02:34:45;;;;;;;;;36.50;33.75;;;;;10.03;100.00;99530.75;2103402;28;46594;-62
2023/12/01 02:35:50;;;;;;;;;37.00;32.60;;;;;10.04;100.00;99527.22;2099890;27;47171;-62
2023/12/01 02:36:50;;;;;;;;;41.80;37.60;;;;;10.02;100.00;99529.91;2110448;27;46945;-62
2023/12/01 02:37:51;;;;;;;;;45.00;35.75;;;;;10.05;100.00;99538.69;2112898;27;46665;-64
2023/12/01 02:38:51;;;;;;;;;35.00;31.25;;;;;10.02;100.00;99534.34;2103961;27;46347;-63
2023/12/01 02:39:51;;;;;;;;;46.50;37.50;;;;;10.02;100.00;99527.25;2105098;27;45696;-63
2023/12/01 02:40:52;;;;;;;;;41.50;35.75;;;;;10.03;100.00;99536.94;2104275;28;46690;-63
2023/12/01 02:41:52;;;;;;;;;32.25;32.25;;;;;10.03;100.00;99534.28;2104534;28;45980;-61
2023/12/01 02:42:54;;;;;;;;;41.25;35.00;;;;;10.05;100.00;99536.91;2094936;28;46371;-58
2023/12/01 02:43:55;;;;;;;;;39.80;35.80;;;;;10.05;100.00;99536.91;2094829;28;47063;-62
2023/12/01 02:44:55;;;;;;;;;36.75;34.75;;;;;10.03;100.00;99538.72;2104649;28;46556;-63
2023/12/01 02:45:55;;;;;;;;;42.75;35.75;;;;;10.01;100.00;99530.84;2104681;28;45929;-61
2023/12/01 02:46:56;;;;;;;;;38.25;34.00;;;;;10.02;100.00;99535.19;2104449;28;47128;-60
2023/12/01 02:47:56;;;;;;;;;40.25;35.75;;;;;10.00;100.00;99536.19;2105102;27;46634;-61
2023/12/01 02:48:56;;;;;;;;;46.00;37.50;;;;;9.99;100.00;99537.13;2103881;27;46902;-60
2023/12/01 02:49:56;;;;;;;;;38.75;35.25;;;;;10.00;100.00;99538.84;2104142;28;46099;-61
2023/12/01 02:50:57;;;;;;;;;40.50;36.25;;;;;9.99;100.00;99531.81;2095511;28;46525;-60
2023/12/01 02:51:57;;;;;;;;;42.50;36.00;;;;;9.98;100.00;99544.22;2102952;28;47020;-60
2023/12/01 02:52:58;;;;;;;;;38.25;34.50;;;;;9.98;100.00;99535.41;2096750;27;46507;-61
2023/12/01 02:53:59;;;;;;;;;45.00;37.40;;;;;9.99;100.00;99548.59;2102532;28;46836;-60
2023/12/01 02:54:59;;;;;;;;;41.75;36.25;;;;;9.98;100.00;99538.03;2104666;28;46802;-60
2023/12/01 02:56:00;;;;;;;;;42.00;34.00;;;;;9.97;100.00;99541.63;2104139;28;47007;-61
2023/12/01 02:57:00;;;;;;;;;34.80;30.40;;;;;9.96;100.00;99545.19;2103930;28;46200;-59
2023/12/01 02:58:01;;;;;;;;;42.25;36.25;;;;;9.96;100.00;99539.91;2104614;27;46373;-60
2023/12/01 02:59:02;;;;;;;;;40.25;35.25;;;;;9.96;100.00;99542.53;2104603;27;46553;-62
2023/12/01 03:00:06;;;;;;;;;39.60;34.20;;;;;9.96;100.00;99538.09;2103710;27;46798;-60
2023/12/01 03:01:07;;;;;;;;;44.40;37.80;;;;;9.96;100.00;99537.25;2104115;28;46447;-61
2023/12/01 03:02:07;;;;;;;;;38.50;34.75;;;;;9.96;100.00;99540.75;2104256;27;46498;-61
2023/12/01 03:03:08;;;;;;;;;33.00;31.50;;;;;9.96;100.00;99542.53;2104558;27;46321;-62
2023/12/01 03:04:08;;;;;;;;;44.75;37.75;;;;;9.96;100.00;99542.53;2104350;28;46335;-62
2023/12/01 03:05:09;;;;;;;;;34.75;31.25;;;;;9.96;100.00;99537.25;2103723;28;46776;-61
2023/12/01 03:06:10;;;;;;;;;39.60;36.00;;;;;9.93;100.00;99534.72;2101694;28;47123;-61
2023/12/01 03:07:10;;;;;;;;;48.50;37.50;;;;;9.93;100.00;99546.19;2104611;28;46791;-63
2023/12/01 03:08:10;;;;;;;;;45.50;37.75;;;;;9.94;100.00;99537.31;2105110;27;47135;-62
2023/12/01 03:09:16;;;;;;;;;44.00;36.00;;;;;9.93;100.00;99543.53;2103989;28;46661;-62
2023/12/01 03:10:17;;;;;;;;;34.40;32.60;;;;;9.94;100.00;99542.59;2103607;28;46328;-62
2023/12/01 03:11:21;;;;;;;;;47.50;36.25;;;;;9.94;100.00;99541.75;2102977;27;46634;-62
2023/12/01 03:12:22;;;;;;;;;44.40;38.00;;;;;9.94;100.00;99541.75;2103980;27;47012;-61
2023/12/01 03:13:22;;;;;;;;;42.50;37.25;;;;;9.95;100.00;99538.16;2104232;27;46393;-61
2023/12/01 03:14:23;;;;;;;;;42.25;35.00;;;;;9.93;100.00;99543.53;2104329;27;46247;-62
2023/12/01 03:15:24;;;;;;;;;41.75;36.00;;;;;9.94;100.00;99544.41;2104116;28;46864;-61
2023/12/01 03:16:24;;;;;;;;;47.40;37.20;;;;;9.93;100.00;99537.38;2103901;28;46459;-60
2023/12/01 03:17:25;;;;;;;;;41.50;34.00;;;;;9.93;100.00;99548.84;2104384;27;46657;-62
2023/12/01 03:18:25;;;;;;;;;41.75;35.75;;;;;9.92;100.00;99541.81;2104273;28;46486;-62
2023/12/01 03:19:26;;;;;;;;;42.00;36.50;;;;;9.93;100.00;99545.31;2100514;28;46567;-61
2023/12/01 03:20:27;;;;;;;;;41.50;36.25;;;;;9.92;100.00;99540.94;2087139;28;46508;-62
2023/12/01 03:21:28;;;;;;;;;40.80;35.40;;;;;9.92;100.00;99543.59;2095428;28;46700;-60
2023/12/01 03:22:28;;;;;;;;;45.75;37.75;;;;;9.92;100.00;99544.44;2098699;28;46825;-61
2023/12/01 03:23:28;;;;;;;;;43.00;35.00;;;;;9.91;100.00;99547.13;2104908;27;46575;-59
2023/12/01 03:24:28;;;;;;;;;43.25;35.50;;;;;9.90;100.00;99554.22;2104432;27;46767;-62
2023/12/01 03:25:29;;;;;;;;;43.25;37.50;;;;;9.91;100.00;99553.34;2104780;28;46548;-60
2023/12/01 03:26:29;;;;;;;;;40.25;36.50;;;;;9.91;100.00;99553.34;2094637;28;46352;-60
2023/12/01 03:27:30;;;;;;;;;42.75;35.50;;;;;9.91;100.00;99550.69;2095294;28;47147;-60
2023/12/01 03:28:31;;;;;;;;;44.50;38.50;;;;;9.91;100.00;99555.97;2102838;28;46478;-60
2023/12/01 03:29:33;;;;;;;;;43.40;36.00;;;;;9.91;100.00;99548.03;2102450;27;46043;-60
2023/12/01 03:30:33;;;;;;;;;43.00;35.60;;;;;9.92;100.00;99552.41;2102717;27;46718;-62
2023/12/01 03:31:33;;;;;;;;;34.50;32.00;;;;;9.93;100.00;99553.25;2104209;27;46837;-61
2023/12/01 03:32:34;;;;;;;;;43.00;36.00;;;;;9.94;100.00;99549.69;2104503;27;46670;-61
2023/12/01 03:33:34;;;;;;;;;43.25;36.00;;;;;9.94;100.00;99547.91;2104684;28;46387;-59
2023/12/01 03:34:35;;;;;;;;;48.25;37.50;;;;;9.95;100.00;99546.97;2104506;27;46385;-60
2023/12/01 03:35:35;;;;;;;;;44.50;35.25;;;;;9.95;100.00;99543.47;2104046;27;46512;-60
2023/12/01 03:36:35;;;;;;;;;37.75;34.25;;;;;9.95;100.00;99551.41;2094433;28;46617;-62
2023/12/01 03:37:35;;;;;;;;;37.25;33.00;;;;;9.95;100.00;99546.97;2094954;28;46818;-61
2023/12/01 03:38:36;;;;;;;;;46.75;37.75;;;;;9.95;100.00;99559.38;2102820;28;46352;-60
2023/12/01 03:39:36;;;;;;;;;37.00;33.25;;;;;9.95;100.00;99554.94;2103696;28;46274;-61
2023/12/01 03:40:39;;;;;;;;;47.25;37.25;;;;;9.95;100.00;99559.38;2104297;27;45774;-59
2023/12/01 03:41:39;;;;;;;;;42.60;37.40;;;;;9.95;100.00;99548.75;2104112;28;46916;-63
2023/12/01 03:42:44;;;;;;;;;43.25;37.00;;;;;9.95;100.00;99551.41;2101300;28;45651;-59
2023/12/01 03:43:45;;;;;;;;;36.00;32.40;;;;;9.94;100.00;99555.84;2104268;27;46371;-61
2023/12/01 03:44:45;;;;;;;;;42.25;36.25;;;;;9.92;100.00;99552.41;2104400;28;46042;-61
2023/12/01 03:45:45;;;;;;;;;39.00;35.25;;;;;9.93;100.00;99547.97;2104379;27;45228;-62
2023/12/01 03:46:47;;;;;;;;;40.00;35.50;;;;;9.92;100.00;99543.59;2102268;27;46601;-61
2023/12/01 03:47:50;;;;;;;;;40.60;35.40;;;;;9.92;100.00;99540.94;2106808;27;46144;-62
2023/12/01 03:48:51;;;;;;;;;38.60;35.00;;;;;9.91;100.00;99541.84;2113412;27;46529;-60
2023/12/01 03:49:51;;;;;;;;;40.75;35.50;;;;;9.91;100.00;99553.34;2113758;27;46357;-59
2023/12/01 03:50:51;;;;;;;;;39.75;33.75;;;;;9.90;100.00;99540.09;2105831;27;46409;-61
2023/12/01 03:51:52;;;;;;;;;47.25;37.25;;;;;9.88;100.00;99552.56;2108137;27;46638;-63
2023/12/01 03:52:52;;;;;;;;;44.25;37.00;;;;;9.87;100.00;99556.13;2108336;27;45687;-61
2023/12/01 03:53:52;;;;;;;;;42.50;33.75;;;;;9.87;100.00;99554.34;2105630;27;46597;-60
2023/12/01 03:54:52;;;;;;;;;42.00;35.00;;;;;9.87;100.00;99561.44;2100732;28;46664;-61
2023/12/01 03:55:53;;;;;;;;;39.00;33.50;;;;;9.86;100.00;99563.22;2105901;27;46711;-62
2023/12/01 03:56:53;;;;;;;;;37.50;34.25;;;;;9.86;100.00;99563.22;2105452;28;46807;-61
2023/12/01 03:57:53;;;;;;;;;38.50;33.75;;;;;9.87;100.00;99567.59;2105590;28;46399;-59
2023/12/01 03:58:55;;;;;;;;;43.00;35.50;;;;;9.85;100.00;99569.44;2104577;27;45793;-63
2023/12/01 03:59:55;;;;;;;;;43.80;36.20;;;;;9.85;100.00;99569.44;2102659;27;46327;-60
2023/12/01 04:00:56;;;;;;;;;36.00;32.75;;;;;9.84;100.00;99572.16;2106128;28;46548;-62
2023/12/01 04:01:56;;;;;;;;;42.75;35.75;;;;;9.83;100.00;99567.78;2105606;27;46960;-62
2023/12/01 04:02:56;;;;;;;;;41.25;35.75;;;;;9.82;100.00;99566.91;2106243;27;46654;-62
2023/12/01 04:03:57;;;;;;;;;42.25;38.00;;;;;9.82;100.00;99574.84;2102867;28;46567;-60
2023/12/01 04:04:57;;;;;;;;;45.50;38.00;;;;;9.80;100.00;99574.06;2105584;27;46440;-61
2023/12/01 04:06:01;;;;;;;;;41.50;34.25;;;;;9.86;100.00;99576.47;2095397;28;46512;-60
2023/12/01 04:07:01;;;;;;;;;35.40;32.60;;;;;9.80;100.00;99573.19;2096488;28;46790;-61
2023/12/01 04:08:03;;;;;;;;;32.50;28.00;;;;;9.85;100.00;99571.22;2105691;27;46867;-62
2023/12/01 04:09:05;;;;;;;;;41.20;36.80;;;;;9.85;100.00;99579.19;2105676;27;46744;-62
2023/12/01 04:10:10;;;;;;;;;45.60;35.80;;;;;9.85;100.00;99568.56;2108662;27;46951;-61
2023/12/01 04:11:11;;;;;;;;;46.80;36.60;;;;;9.85;100.00;99572.09;2105965;27;46553;-60
2023/12/01 04:12:11;;;;;;;;;32.00;28.80;;;;;9.85;100.00;99579.19;2113807;27;45200;-61
2023/12/01 04:13:13;;;;;;;;;39.25;34.00;;;;;9.85;100.00;99574.75;2105764;27;46333;-62
2023/12/01 04:14:13;;;;;;;;;41.00;35.60;;;;;9.85;100.00;99580.03;2105584;27;46245;-60
2023/12/01 04:15:14;;;;;;;;;43.50;37.50;;;;;9.85;100.00;99577.38;2104860;28;46576;-62
2023/12/01 04:16:15;;;;;;;;;42.60;34.20;;;;;9.86;100.00;99578.25;2100462;28;46835;-60
2023/12/01 04:17:15;;;;;;;;;41.25;33.00;;;;;9.86;100.00;99575.59;2105120;28;46675;-61
2023/12/01 04:18:16;;;;;;;;;38.50;33.00;;;;;9.85;100.00;99579.19;2105000;28;46882;-62
2023/12/01 04:19:16;;;;;;;;;39.50;35.75;;;;;9.85;100.00;99574.75;2105791;28;46372;-62
2023/12/01 04:20:22;;;;;;;;;46.25;37.75;;;;;9.85;100.00;99574.75;2104699;28;46234;-59
2023/12/01 04:21:23;;;;;;;;;48.40;38.80;;;;;9.86;100.00;99572.94;2105327;28;46451;-60
2023/12/01 04:22:23;;;;;;;;;48.00;39.75;;;;;9.87;100.00;99578.19;2105251;27;46851;-60
2023/12/01 04:23:23;;;;;;;;;44.25;37.25;;;;;9.87;100.00;99580.84;2103728;28;46592;-61
2023/12/01 04:24:24;;;;;;;;;42.00;34.25;;;;;9.87;100.00;99574.69;2104442;27;46239;-60
2023/12/01 04:25:25;;;;;;;;;41.25;37.25;;;;;9.87;100.00;99586.13;2106051;27;46208;-61
2023/12/01 04:26:25;;;;;;;;;41.75;36.50;;;;;9.87;100.00;99582.63;2106771;27;46554;-61
2023/12/01 04:27:26;;;;;;;;;41.50;34.50;;;;;9.88;100.00;99585.22;2105219;27;46191;-62
2023/12/01 04:28:26;;;;;;;;;40.50;34.00;;;;;9.88;100.00;99584.34;2105763;27;45383;-61
2023/12/01 04:29:30;;;;;;;;;45.25;36.00;;;;;9.89;100.00;99589.59;2095967;28;46353;-61
2023/12/01 04:30:31;;;;;;;;;47.80;39.60;;;;;9.89;100.00;99594.03;2096600;28;46058;-60
2023/12/01 04:31:31;;;;;;;;;42.75;36.50;;;;;9.89;100.00;99589.59;2106103;28;46578;-59
2023/12/01 04:32:31;;;;;;;;;40.25;35.25;;;;;9.89;100.00;99591.38;2104462;27;45783;-59
2023/12/01 04:33:32;;;;;;;;;44.25;38.75;;;;;9.88;100.00;99587.00;2105109;28;46656;-60
2023/12/01 04:34:32;;;;;;;;;45.50;36.50;;;;;9.87;100.00;99583.50;2096524;28;46531;-59
2023/12/01 04:35:34;;;;;;;;;49.75;40.25;;;;;9.86;100.00;99592.38;2105100;28;46255;-61
2023/12/01 04:36:35;;;;;;;;;35.40;33.60;;;;;9.85;100.00;99589.78;2105300;27;46647;-62
2023/12/01 04:37:35;;;;;;;;;48.25;41.00;;;;;9.85;100.00;99587.13;2113110;27;46602;-61